Time;durP1;ratioP1;P1;durP2;ratioP2;P2;SDS_P1;SDS_P2;PMS_P1;PMS_P2;Temp;Humidity;BMP_temperature;BMP_pressure;BME280_temperature;BME280_humidity;BME280_pressure;Samples;Min_cycle;Max_cycle;Signal;HPM_P1;HPM_P2
2021/01/28 00:00:35;;;;;;;31.65;18.70;;;;;;;;;;5072040;28;20571;-69
2021/01/28 00:03:01;;;;;;;24.88;16.50;;;;;;;;;;5058140;28;20216;-69
2021/01/28 00:05:29;;;;;;;34.95;21.80;;;;;;;;;;5066887;28;20189;-69
2021/01/28 00:07:56;;;;;;;33.25;19.77;;;;;;;;;;5071737;28;20544;-69
2021/01/28 00:10:22;;;;;;;35.47;19.63;;;;;;;;;;5071914;28;20176;-70
2021/01/28 00:12:48;;;;;;;32.78;18.92;;;;;;;;;;5070696;28;20223;-69
2021/01/28 00:15:18;;;;;;;26.40;17.73;;;;;;;;;;5071721;28;20574;-70
2021/01/28 00:17:44;;;;;;;27.60;18.20;;;;;;;;;;5071601;28;20399;-69
2021/01/28 00:20:12;;;;;;;30.50;18.67;;;;;;;;;;5071410;28;20272;-69
2021/01/28 00:22:38;;;;;;;30.13;18.05;;;;;;;;;;5071132;28;20552;-69
2021/01/28 00:25:04;;;;;;;28.67;17.43;;;;;;;;;;5071203;28;20177;-69
2021/01/28 00:27:30;;;;;;;35.95;18.63;;;;;;;;;;5071678;28;20457;-69
2021/01/28 00:29:56;;;;;;;33.00;18.90;;;;;;;;;;5071406;28;20180;-69
2021/01/28 00:32:22;;;;;;;32.77;19.20;;;;;;;;;;5063167;28;20420;-69
2021/01/28 00:34:48;;;;;;;27.20;16.10;;;;;;;;;;5063252;28;20479;-69
2021/01/28 00:37:14;;;;;;;27.57;16.60;;;;;;;;;;5070999;28;20426;-69
2021/01/28 00:39:40;;;;;;;31.30;16.90;;;;;;;;;;5070554;28;20828;-69
2021/01/28 00:42:06;;;;;;;32.90;19.63;;;;;;;;;;5071211;28;20468;-69
2021/01/28 00:44:32;;;;;;;26.77;18.63;;;;;;;;;;5070981;28;20439;-69
2021/01/28 00:46:58;;;;;;;28.50;17.97;;;;;;;;;;5070734;28;20430;-69
2021/01/28 00:49:24;;;;;;;31.63;17.20;;;;;;;;;;5070608;28;20430;-69
2021/01/28 00:51:49;;;;;;;28.90;17.90;;;;;;;;;;5070673;28;20542;-69
2021/01/28 00:54:16;;;;;;;27.00;17.93;;;;;;;;;;5070424;28;20471;-69
2021/01/28 00:56:42;;;;;;;27.50;17.15;;;;;;;;;;5071114;28;20510;-70
2021/01/28 00:59:08;;;;;;;26.75;16.05;;;;;;;;;;5071131;28;20362;-69
2021/01/28 01:01:34;;;;;;;24.48;15.77;;;;;;;;;;5070248;28;20202;-69
2021/01/28 01:04:00;;;;;;;26.73;16.67;;;;;;;;;;5069987;28;20192;-69
2021/01/28 01:06:25;;;;;;;23.47;16.80;;;;;;;;;;5070942;28;20567;-69
2021/01/28 01:08:51;;;;;;;27.07;16.70;;;;;;;;;;5070518;28;20419;-69
2021/01/28 01:11:17;;;;;;;23.07;15.00;;;;;;;;;;5070594;28;20480;-69
2021/01/28 01:13:46;;;;;;;28.77;14.18;;;;;;;;;;5070590;28;20474;-69
2021/01/28 01:16:13;;;;;;;27.52;15.63;;;;;;;;;;5070389;28;20644;-69
2021/01/28 01:18:39;;;;;;;21.00;14.15;;;;;;;;;;5069923;28;20185;-69
2021/01/28 01:21:06;;;;;;;24.73;15.00;;;;;;;;;;5055939;28;20259;-69
2021/01/28 01:23:32;;;;;;;24.08;14.48;;;;;;;;;;5070727;28;20266;-69
2021/01/28 01:25:58;;;;;;;19.08;13.50;;;;;;;;;;5070431;28;20181;-69
2021/01/28 01:28:27;;;;;;;17.75;13.48;;;;;;;;;;5069940;28;20235;-69
2021/01/28 01:30:53;;;;;;;21.90;12.25;;;;;;;;;;5070527;28;20196;-69
2021/01/28 01:33:19;;;;;;;25.20;16.15;;;;;;;;;;5070435;28;20208;-69
2021/01/28 01:35:45;;;;;;;25.20;14.13;;;;;;;;;;5069789;28;20196;-69
2021/01/28 01:38:11;;;;;;;19.67;14.57;;;;;;;;;;5070108;28;20419;-69
2021/01/28 01:40:39;;;;;;;20.45;12.80;;;;;;;;;;5070481;28;20494;-69
2021/01/28 01:43:06;;;;;;;17.58;12.85;;;;;;;;;;5070496;28;20624;-69
2021/01/28 01:45:33;;;;;;;19.00;12.93;;;;;;;;;;5070470;28;20181;-69
2021/01/28 01:48:11;;;;;;;26.52;14.10;;;;;;;;;;5070033;28;20188;-69
2021/01/28 01:50:45;;;;;;;23.65;14.50;;;;;;;;;;5069811;28;20687;-69
2021/01/28 01:53:15;;;;;;;19.80;13.10;;;;;;;;;;5069693;28;20223;-70
2021/01/28 01:55:43;;;;;;;20.85;13.05;;;;;;;;;;5070376;28;20181;-70
2021/01/28 01:58:11;;;;;;;25.10;13.15;;;;;;;;;;5069712;28;20562;-69
2021/01/28 02:00:37;;;;;;;17.23;11.95;;;;;;;;;;5070213;28;20513;-69
2021/01/28 02:03:07;;;;;;;19.60;13.57;;;;;;;;;;5069641;28;20195;-69
2021/01/28 02:05:35;;;;;;;16.85;11.25;;;;;;;;;;5069837;28;20181;-69
2021/01/28 02:08:02;;;;;;;14.27;11.73;;;;;;;;;;5070186;28;20173;-69
2021/01/28 02:10:28;;;;;;;15.05;11.00;;;;;;;;;;5070143;28;20195;-69
2021/01/28 02:12:54;;;;;;;18.03;10.80;;;;;;;;;;5069700;28;20305;-70
2021/01/28 02:15:21;;;;;;;15.23;10.55;;;;;;;;;;5071927;28;20419;-69
2021/01/28 02:17:52;;;;;;;16.90;10.80;;;;;;;;;;5073943;28;20177;-69
2021/01/28 02:20:33;;;;;;;15.43;9.85;;;;;;;;;;5073958;28;20188;-69
2021/01/28 02:23:15;;;;;;;14.30;8.18;;;;;;;;;;5073626;28;20212;-69
2021/01/28 02:25:43;;;;;;;18.08;8.70;;;;;;;;;;5073710;28;20177;-69
2021/01/28 02:28:10;;;;;;;15.70;8.55;;;;;;;;;;5073726;28;20185;-69
2021/01/28 02:30:37;;;;;;;12.27;9.23;;;;;;;;;;5073635;28;20177;-69
2021/01/28 02:33:03;;;;;;;15.05;9.07;;;;;;;;;;5073567;28;20209;-69
2021/01/28 02:35:31;;;;;;;16.27;9.18;;;;;;;;;;5073462;28;20181;-69
2021/01/28 02:37:58;;;;;;;13.23;8.57;;;;;;;;;;5054111;28;20177;-69
2021/01/28 02:40:25;;;;;;;12.80;9.23;;;;;;;;;;5071718;28;20180;-69
2021/01/28 02:42:52;;;;;;;14.85;8.55;;;;;;;;;;5073804;28;20211;-69
2021/01/28 02:45:19;;;;;;;12.82;8.90;;;;;;;;;;5073484;28;20268;-69
2021/01/28 02:47:50;;;;;;;15.25;8.45;;;;;;;;;;5073526;28;20281;-69
2021/01/28 02:50:16;;;;;;;13.57;9.18;;;;;;;;;;5067458;28;20185;-69
2021/01/28 02:52:42;;;;;;;13.80;8.48;;;;;;;;;;5073136;28;20231;-69
2021/01/28 02:55:08;;;;;;;11.20;8.70;;;;;;;;;;5073725;28;20175;-69
2021/01/28 02:57:34;;;;;;;13.27;8.65;;;;;;;;;;5073742;28;20441;-69
2021/01/28 03:00:00;;;;;;;14.67;8.10;;;;;;;;;;5071535;28;20557;-69
2021/01/28 03:02:26;;;;;;;13.97;8.77;;;;;;;;;;5071429;28;20860;-69
2021/01/28 03:04:52;;;;;;;15.13;8.70;;;;;;;;;;5071634;28;20435;-70
2021/01/28 03:07:19;;;;;;;12.63;9.00;;;;;;;;;;5072814;28;20431;-70
2021/01/28 03:09:45;;;;;;;12.27;8.00;;;;;;;;;;5073015;28;20457;-70
2021/01/28 03:12:12;;;;;;;9.73;8.67;;;;;;;;;;5073150;28;20185;-70
2021/01/28 03:14:37;;;;;;;8.77;7.85;;;;;;;;;;5072787;28;20470;-70
2021/01/28 03:17:07;;;;;;;13.67;8.03;;;;;;;;;;5072654;28;20208;-70
2021/01/28 03:19:33;;;;;;;11.32;8.23;;;;;;;;;;5072658;28;20465;-70
2021/01/28 03:21:59;;;;;;;9.77;8.77;;;;;;;;;;5072587;28;20185;-70
2021/01/28 03:24:25;;;;;;;13.18;7.97;;;;;;;;;;5072885;28;20786;-70
2021/01/28 03:26:51;;;;;;;15.10;8.57;;;;;;;;;;5071912;28;20169;-70
2021/01/28 03:29:17;;;;;;;11.83;9.20;;;;;;;;;;5072570;28;20207;-70
2021/01/28 03:31:43;;;;;;;10.57;8.38;;;;;;;;;;5072333;28;20477;-70
2021/01/28 03:34:09;;;;;;;14.02;10.57;;;;;;;;;;5072284;28;20205;-70
2021/01/28 03:36:36;;;;;;;14.63;10.02;;;;;;;;;;5072737;28;20219;-70
2021/01/28 03:39:02;;;;;;;15.63;11.38;;;;;;;;;;5072481;28;20261;-70
2021/01/28 03:41:28;;;;;;;11.45;9.38;;;;;;;;;;5072349;28;20177;-70
2021/01/28 03:43:54;;;;;;;15.30;11.67;;;;;;;;;;5072672;28;20222;-70
2021/01/28 03:46:20;;;;;;;15.23;9.10;;;;;;;;;;5072472;28;20431;-70
2021/01/28 03:48:46;;;;;;;15.43;9.57;;;;;;;;;;5072624;28;20411;-70
2021/01/28 03:51:12;;;;;;;15.50;10.47;;;;;;;;;;5072280;28;20496;-70
2021/01/28 03:53:38;;;;;;;13.60;9.80;;;;;;;;;;5072141;28;21089;-70
2021/01/28 03:56:04;;;;;;;14.47;9.67;;;;;;;;;;5071852;28;20423;-70
2021/01/28 03:58:30;;;;;;;10.68;9.60;;;;;;;;;;5072299;28;20434;-70
2021/01/28 04:00:56;;;;;;;11.80;8.88;;;;;;;;;;5070747;28;20184;-70
2021/01/28 04:03:22;;;;;;;14.90;9.63;;;;;;;;;;5071908;28;20234;-70
2021/01/28 04:05:48;;;;;;;17.13;9.18;;;;;;;;;;5071721;28;20176;-70
2021/01/28 04:08:14;;;;;;;11.17;9.27;;;;;;;;;;5072285;28;20276;-70
2021/01/28 04:10:40;;;;;;;10.88;7.72;;;;;;;;;;5072104;28;20901;-70
2021/01/28 04:13:07;;;;;;;7.88;6.70;;;;;;;;;;5071935;28;20208;-70
2021/01/28 04:15:33;;;;;;;9.60;6.30;;;;;;;;;;5071571;28;20211;-70
2021/01/28 04:18:00;;;;;;;10.05;7.45;;;;;;;;;;5071934;28;20180;-70
2021/01/28 04:20:27;;;;;;;10.50;8.52;;;;;;;;;;5071849;28;20679;-69
2021/01/28 04:22:54;;;;;;;9.68;8.68;;;;;;;;;;5072243;28;20624;-69
2021/01/28 04:25:20;;;;;;;9.43;8.48;;;;;;;;;;5071222;28;20189;-69
2021/01/28 04:27:46;;;;;;;6.72;6.05;;;;;;;;;;5071745;28;20174;-69
2021/01/28 04:30:14;;;;;;;9.32;7.43;;;;;;;;;;5071001;28;20566;-69
2021/01/28 04:32:40;;;;;;;9.38;6.97;;;;;;;;;;5071316;28;20212;-69
2021/01/28 04:35:07;;;;;;;11.47;7.97;;;;;;;;;;5071188;28;20177;-69
2021/01/28 04:37:33;;;;;;;10.15;7.00;;;;;;;;;;5070820;28;20520;-69
2021/01/28 04:39:59;;;;;;;10.48;7.90;;;;;;;;;;5071407;28;20185;-69
2021/01/28 04:42:32;;;;;;;11.93;7.50;;;;;;;;;;5071309;28;20180;-69
2021/01/28 04:44:58;;;;;;;10.38;7.53;;;;;;;;;;5071257;28;20185;-69
2021/01/28 04:47:24;;;;;;;8.93;6.97;;;;;;;;;;5071475;28;20230;-69
2021/01/28 04:49:55;;;;;;;12.60;6.90;;;;;;;;;;5070806;28;20252;-69
2021/01/28 04:52:22;;;;;;;9.40;7.07;;;;;;;;;;5071013;28;20180;-69
2021/01/28 04:54:49;;;;;;;9.63;7.70;;;;;;;;;;5071138;28;20183;-69
2021/01/28 04:57:15;;;;;;;13.27;7.43;;;;;;;;;;5071230;28;20180;-69
2021/01/28 04:59:43;;;;;;;14.50;11.05;;;;;;;;;;5069067;28;20177;-69
2021/01/28 05:02:11;;;;;;;13.10;8.75;;;;;;;;;;5067092;28;20247;-69
2021/01/28 05:04:42;;;;;;;11.40;8.55;;;;;;;;;;5070551;28;20201;-69
2021/01/28 05:07:09;;;;;;;9.68;8.45;;;;;;;;;;5070501;28;20181;-69
2021/01/28 05:09:36;;;;;;;10.38;9.05;;;;;;;;;;5071114;28;20218;-69
2021/01/28 05:12:02;;;;;;;10.73;7.85;;;;;;;;;;5071046;28;20184;-69
2021/01/28 05:14:30;;;;;;;8.65;7.60;;;;;;;;;;5070568;28;20204;-69
2021/01/28 05:16:57;;;;;;;8.60;7.70;;;;;;;;;;5070479;28;20218;-70
2021/01/28 05:19:42;;;;;;;10.55;7.85;;;;;;;;;;5070359;28;20553;-70
2021/01/28 05:22:16;;;;;;;11.20;7.53;;;;;;;;;;5070529;28;20212;-69
2021/01/28 05:24:44;;;;;;;8.65;7.20;;;;;;;;;;5070363;28;20201;-69
2021/01/28 05:27:12;;;;;;;8.73;7.93;;;;;;;;;;5070933;28;20679;-69
2021/01/28 05:29:39;;;;;;;12.73;8.52;;;;;;;;;;5069001;28;20180;-69
2021/01/28 05:32:11;;;;;;;10.30;8.88;;;;;;;;;;5053044;28;20173;-69
2021/01/28 05:34:37;;;;;;;8.30;7.40;;;;;;;;;;5068511;28;20289;-69
2021/01/28 05:37:04;;;;;;;12.25;7.65;;;;;;;;;;5069286;28;20180;-69
2021/01/28 05:39:35;;;;;;;8.70;7.65;;;;;;;;;;5070289;28;20667;-69
2021/01/28 05:42:06;;;;;;;9.93;8.30;;;;;;;;;;5070475;28;20183;-69
2021/01/28 05:44:33;;;;;;;10.55;7.68;;;;;;;;;;5067663;28;20201;-69
2021/01/28 05:47:05;;;;;;;11.40;7.97;;;;;;;;;;5069804;28;20601;-69
2021/01/28 05:49:31;;;;;;;10.52;9.05;;;;;;;;;;5068533;28;20506;-70
2021/01/28 05:51:57;;;;;;;11.63;9.75;;;;;;;;;;5069816;28;20281;-72
2021/01/28 05:54:27;;;;;;;14.80;8.50;;;;;;;;;;5070130;28;20232;-70
2021/01/28 05:56:58;;;;;;;12.20;8.18;;;;;;;;;;5070199;28;20957;-69
2021/01/28 05:59:36;;;;;;;11.40;9.65;;;;;;;;;;5070164;28;20188;-71
2021/01/28 06:02:10;;;;;;;12.02;7.90;;;;;;;;;;5070546;28;20172;-70
2021/01/28 06:04:35;;;;;;;9.82;7.20;;;;;;;;;;5069237;28;20205;-70
2021/01/28 06:07:01;;;;;;;9.30;7.63;;;;;;;;;;5070477;28;20663;-71
2021/01/28 06:09:28;;;;;;;9.53;8.53;;;;;;;;;;5070121;28;20922;-70
2021/01/28 06:12:12;;;;;;;11.80;8.43;;;;;;;;;;5070501;28;20407;-70
2021/01/28 06:14:56;;;;;;;11.77;8.90;;;;;;;;;;5068528;28;20753;-70
2021/01/28 06:17:25;;;;;;;14.25;9.43;;;;;;;;;;5070187;28;20168;-69
2021/01/28 06:20:09;;;;;;;13.05;8.27;;;;;;;;;;5069928;28;20586;-70
2021/01/28 06:22:38;;;;;;;10.02;9.02;;;;;;;;;;5066741;28;20191;-69
2021/01/28 06:25:04;;;;;;;11.95;7.93;;;;;;;;;;5070277;28;20256;-70
2021/01/28 06:27:48;;;;;;;9.53;7.70;;;;;;;;;;5069955;28;20666;-70
2021/01/28 06:30:22;;;;;;;11.63;7.95;;;;;;;;;;5070412;28;20399;-71
2021/01/28 06:32:48;;;;;;;9.48;8.40;;;;;;;;;;5070172;28;20204;-70
2021/01/28 06:35:17;;;;;;;10.17;8.20;;;;;;;;;;5068289;28;20177;-71
2021/01/28 06:37:58;;;;;;;10.23;8.07;;;;;;;;;;5069464;28;20430;-70
2021/01/28 06:40:27;;;;;;;11.10;8.50;;;;;;;;;;5069822;28;20584;-71
2021/01/28 06:42:59;;;;;;;12.43;8.20;;;;;;;;;;5068371;28;20220;-69
2021/01/28 06:45:28;;;;;;;11.43;8.88;;;;;;;;;;5060250;28;20185;-70
2021/01/28 06:48:06;;;;;;;10.98;8.75;;;;;;;;;;5071632;28;20184;-70
2021/01/28 06:50:51;;;;;;;10.52;8.63;;;;;;;;;;5069844;28;20660;-70
2021/01/28 06:53:23;;;;;;;14.00;10.15;;;;;;;;;;5074359;28;20243;-70
2021/01/28 06:55:52;;;;;;;10.45;7.78;;;;;;;;;;5071596;28;20736;-70
2021/01/28 06:58:17;;;;;;;14.35;8.93;;;;;;;;;;5069955;28;20203;-69
2021/01/28 07:00:43;;;;;;;12.10;9.03;;;;;;;;;;5071504;28;20181;-71
2021/01/28 07:03:15;;;;;;;15.87;11.60;;;;;;;;;;5073305;28;20422;-70
2021/01/28 07:05:44;;;;;;;10.68;8.70;;;;;;;;;;5073208;28;20411;-71
2021/01/28 07:08:10;;;;;;;12.43;10.10;;;;;;;;;;5074006;28;20208;-71
2021/01/28 07:10:42;;;;;;;13.10;9.07;;;;;;;;;;5072117;28;20220;-70
2021/01/28 07:13:11;;;;;;;10.13;9.13;;;;;;;;;;5073092;28;20212;-70
2021/01/28 07:15:37;;;;;;;9.85;7.35;;;;;;;;;;5053144;28;20170;-72
2021/01/28 07:18:06;;;;;;;10.65;8.50;;;;;;;;;;5070408;28;20177;-71
2021/01/28 07:20:36;;;;;;;11.45;7.53;;;;;;;;;;5073165;28;20180;-70
2021/01/28 07:23:21;;;;;;;10.25;7.68;;;;;;;;;;5053250;28;20198;-70
2021/01/28 07:25:47;;;;;;;8.23;7.45;;;;;;;;;;5053208;28;20169;-70
2021/01/28 07:28:20;;;;;;;10.52;7.13;;;;;;;;;;5073028;28;20188;-70
2021/01/28 07:30:47;;;;;;;10.15;7.00;;;;;;;;;;5072869;28;20211;-70
2021/01/28 07:33:25;;;;;;;9.07;7.45;;;;;;;;;;5072485;28;20231;-71
2021/01/28 07:35:52;;;;;;;8.10;6.97;;;;;;;;;;5065519;28;20177;-70
2021/01/28 07:38:30;;;;;;;6.80;6.15;;;;;;;;;;5063414;28;20182;-70
2021/01/28 07:41:08;;;;;;;8.95;6.40;;;;;;;;;;5054792;28;20259;-70
2021/01/28 07:43:36;;;;;;;8.93;7.90;;;;;;;;;;5072167;28;20205;-71
2021/01/28 07:46:21;;;;;;;9.57;7.25;;;;;;;;;;5072391;28;20181;-71
2021/01/28 07:48:47;;;;;;;7.40;6.18;;;;;;;;;;5072372;28;20583;-71
2021/01/28 07:51:32;;;;;;;7.95;6.55;;;;;;;;;;5070031;28;20199;-71
2021/01/28 07:53:59;;;;;;;8.40;7.05;;;;;;;;;;5067272;28;20610;-70
2021/01/28 07:56:37;;;;;;;8.65;7.75;;;;;;;;;;5052333;28;20225;-71
2021/01/28 07:59:09;;;;;;;12.95;7.20;;;;;;;;;;5079414;28;20183;-71
2021/01/28 08:01:36;;;;;;;6.47;5.65;;;;;;;;;;5072542;28;20215;-71
2021/01/28 08:04:04;;;;;;;7.45;6.60;;;;;;;;;;5071568;28;20614;-71
2021/01/28 08:06:32;;;;;;;10.02;7.28;;;;;;;;;;5072035;28;20259;-70
2021/01/28 08:09:03;;;;;;;12.40;6.70;;;;;;;;;;5072242;28;20176;-71
2021/01/28 08:11:29;;;;;;;6.60;5.97;;;;;;;;;;5072374;28;20629;-72
2021/01/28 08:13:56;;;;;;;6.88;5.60;;;;;;;;;;5071840;28;20205;-70
2021/01/28 08:16:23;;;;;;;10.20;5.90;;;;;;;;;;5071569;28;20232;-70
2021/01/28 08:19:06;;;;;;;7.50;5.80;;;;;;;;;;5072028;28;20550;-71
2021/01/28 08:21:32;;;;;;;6.07;5.47;;;;;;;;;;5071976;28;20212;-70
2021/01/28 08:24:21;;;;;;;8.93;6.25;;;;;;;;;;5071788;28;20200;-71
2021/01/28 08:26:48;;;;;;;9.65;5.65;;;;;;;;;;5072083;28;20183;-72
2021/01/28 08:29:21;;;;;;;5.47;4.97;;;;;;;;;;5071780;28;20176;-71
2021/01/28 08:31:47;;;;;;;4.85;4.40;;;;;;;;;;5071715;28;20204;-71
2021/01/28 08:34:15;;;;;;;6.77;5.50;;;;;;;;;;5070820;28;20285;-71
2021/01/28 08:36:44;;;;;;;8.50;4.68;;;;;;;;;;5071110;28;20447;-71
2021/01/28 08:39:14;;;;;;;5.85;5.25;;;;;;;;;;5071726;28;20260;-72
2021/01/28 08:41:40;;;;;;;5.57;4.28;;;;;;;;;;5071515;28;20177;-71
2021/01/28 08:44:10;;;;;;;4.78;4.30;;;;;;;;;;5071295;28;20197;-71
2021/01/28 08:46:36;;;;;;;6.15;4.82;;;;;;;;;;5071698;28;20201;-71
2021/01/28 08:49:07;;;;;;;4.75;4.25;;;;;;;;;;5069929;28;20185;-72
2021/01/28 08:51:36;;;;;;;5.60;3.70;;;;;;;;;;5070948;28;20212;-72
2021/01/28 08:54:05;;;;;;;4.15;3.75;;;;;;;;;;5071078;28;20737;-73
2021/01/28 08:56:33;;;;;;;3.67;3.35;;;;;;;;;;5071951;28;20168;-71
2021/01/28 08:59:01;;;;;;;5.07;3.72;;;;;;;;;;5071011;28;20309;-72
2021/01/28 09:01:27;;;;;;;5.07;4.50;;;;;;;;;;5070210;28;20607;-71
2021/01/28 09:03:57;;;;;;;4.35;3.30;;;;;;;;;;5070507;28;20235;-71
2021/01/28 09:06:22;;;;;;;3.40;3.10;;;;;;;;;;5065604;28;20718;-72
2021/01/28 09:08:59;;;;;;;6.10;4.37;;;;;;;;;;5071187;28;20185;-72
2021/01/28 09:11:26;;;;;;;4.90;4.47;;;;;;;;;;5070817;28;20433;-73
2021/01/28 09:14:02;;;;;;;4.28;3.88;;;;;;;;;;5070628;28;20295;-73
2021/01/28 09:16:28;;;;;;;3.95;3.40;;;;;;;;;;5052980;28;20207;-73
2021/01/28 09:18:54;;;;;;;5.18;3.92;;;;;;;;;;5050828;28;20200;-73
2021/01/28 09:21:22;;;;;;;5.88;4.40;;;;;;;;;;5064678;28;20184;-73
2021/01/28 09:23:55;;;;;;;4.40;3.83;;;;;;;;;;5070441;28;20261;-73
2021/01/28 09:26:24;;;;;;;5.13;3.33;;;;;;;;;;5070953;28;20181;-73
2021/01/28 09:28:49;;;;;;;5.10;3.80;;;;;;;;;;5070702;28;20264;-72
2021/01/28 09:31:20;;;;;;;4.40;4.00;;;;;;;;;;5071082;28;20201;-72
2021/01/28 09:33:46;;;;;;;4.45;3.60;;;;;;;;;;5064470;28;20224;-73
2021/01/28 09:36:12;;;;;;;4.18;3.72;;;;;;;;;;5069746;28;20535;-73
2021/01/28 09:38:38;;;;;;;6.40;4.17;;;;;;;;;;5069547;28;20185;-74
2021/01/28 09:41:09;;;;;;;4.10;3.58;;;;;;;;;;5070330;28;20423;-73
2021/01/28 09:43:35;;;;;;;4.53;3.42;;;;;;;;;;5068172;28;20590;-74
2021/01/28 09:46:01;;;;;;;4.35;3.80;;;;;;;;;;5061414;28;20176;-74
2021/01/28 09:48:27;;;;;;;4.20;3.80;;;;;;;;;;5050870;28;20253;-74
2021/01/28 09:50:54;;;;;;;5.68;4.30;;;;;;;;;;5062488;28;20531;-75
2021/01/28 09:53:20;;;;;;;5.30;4.80;;;;;;;;;;5070300;28;20219;-74
2021/01/28 09:55:46;;;;;;;5.17;4.23;;;;;;;;;;5070091;28;20561;-74
2021/01/28 09:58:12;;;;;;;4.55;4.20;;;;;;;;;;5070365;28;20529;-74
2021/01/28 10:00:38;;;;;;;3.87;3.57;;;;;;;;;;5070636;28;20256;-74
2021/01/28 10:03:05;;;;;;;4.67;3.53;;;;;;;;;;5057937;28;20807;-74
2021/01/28 10:05:32;;;;;;;4.93;3.05;;;;;;;;;;5060037;28;20423;-74
2021/01/28 10:07:58;;;;;;;3.88;3.55;;;;;;;;;;5068320;28;20703;-74
2021/01/28 10:10:26;;;;;;;5.05;3.97;;;;;;;;;;5070351;28;20177;-74
2021/01/28 10:12:54;;;;;;;5.00;4.25;;;;;;;;;;5070204;28;20196;-74
2021/01/28 10:15:20;;;;;;;6.07;4.57;;;;;;;;;;5069960;28;20208;-74
2021/01/28 10:17:46;;;;;;;7.25;4.60;;;;;;;;;;5070270;28;20602;-74
2021/01/28 10:20:13;;;;;;;5.45;4.22;;;;;;;;;;5067584;28;20581;-74
2021/01/28 10:22:40;;;;;;;4.20;3.80;;;;;;;;;;5067017;28;20192;-74
2021/01/28 10:25:07;;;;;;;8.57;5.97;;;;;;;;;;5069518;28;20177;-73
2021/01/28 10:27:33;;;;;;;7.63;4.68;;;;;;;;;;5070084;28;20179;-74
2021/01/28 10:29:59;;;;;;;5.32;4.72;;;;;;;;;;5070193;28;20179;-73
2021/01/28 10:32:25;;;;;;;5.03;4.33;;;;;;;;;;5070229;28;20584;-74
2021/01/28 10:34:51;;;;;;;4.93;4.50;;;;;;;;;;5070217;28;20811;-74
2021/01/28 10:37:17;;;;;;;5.70;4.30;;;;;;;;;;5073710;28;20499;-74
2021/01/28 10:39:44;;;;;;;6.13;4.35;;;;;;;;;;5074235;28;20406;-73
2021/01/28 10:42:14;;;;;;;4.78;4.28;;;;;;;;;;5072519;28;20185;-74
2021/01/28 10:44:40;;;;;;;5.55;4.50;;;;;;;;;;5071155;28;20552;-73
2021/01/28 10:47:06;;;;;;;3.60;3.30;;;;;;;;;;5056810;28;20184;-74
2021/01/28 10:49:32;;;;;;;4.43;3.88;;;;;;;;;;5053602;28;20411;-73
2021/01/28 10:51:58;;;;;;;6.00;4.47;;;;;;;;;;5067619;28;20242;-74
2021/01/28 10:54:24;;;;;;;4.00;3.47;;;;;;;;;;5073296;28;20993;-73
2021/01/28 10:56:52;;;;;;;4.83;4.43;;;;;;;;;;5072496;28;20230;-74
2021/01/28 10:59:18;;;;;;;8.35;4.05;;;;;;;;;;5073406;28;20454;-73
2021/01/28 11:01:44;;;;;;;4.33;4.00;;;;;;;;;;5073466;28;20208;-72
2021/01/28 11:04:10;;;;;;;4.97;3.58;;;;;;;;;;5073299;28;20434;-73
2021/01/28 11:06:36;;;;;;;4.82;3.97;;;;;;;;;;5073199;28;20264;-73
2021/01/28 11:09:03;;;;;;;4.65;3.90;;;;;;;;;;5073118;28;20531;-73
2021/01/28 11:11:29;;;;;;;4.63;3.88;;;;;;;;;;5093737;28;20176;-73
2021/01/28 11:13:55;;;;;;;5.90;4.22;;;;;;;;;;5081130;28;20219;-74
2021/01/28 11:16:24;;;;;;;4.20;3.80;;;;;;;;;;5072944;28;20169;-73
2021/01/28 11:18:53;;;;;;;5.05;4.53;;;;;;;;;;5053358;28;20166;-74
2021/01/28 11:21:19;;;;;;;4.55;4.13;;;;;;;;;;5059027;28;20226;-73
2021/01/28 11:23:45;;;;;;;6.93;4.65;;;;;;;;;;5073162;28;20193;-73
2021/01/28 11:26:11;;;;;;;4.85;4.32;;;;;;;;;;5072457;28;20283;-73
2021/01/28 11:28:37;;;;;;;5.00;4.50;;;;;;;;;;5073010;28;20203;-74
2021/01/28 11:31:04;;;;;;;4.72;4.35;;;;;;;;;;5073023;28;20163;-74
2021/01/28 11:33:30;;;;;;;5.13;4.50;;;;;;;;;;5072462;28;20208;-75
2021/01/28 11:35:56;;;;;;;4.50;4.10;;;;;;;;;;5072381;28;20245;-73
2021/01/28 11:38:22;;;;;;;3.73;3.43;;;;;;;;;;5072818;28;20649;-74
2021/01/28 11:40:48;;;;;;;6.40;3.80;;;;;;;;;;5072584;28;20903;-74
2021/01/28 11:43:14;;;;;;;4.90;4.15;;;;;;;;;;5072477;28;20822;-74
2021/01/28 11:45:40;;;;;;;4.00;3.60;;;;;;;;;;5072343;28;20177;-73
2021/01/28 11:48:06;;;;;;;4.70;4.30;;;;;;;;;;5072748;28;20906;-74
2021/01/28 11:50:32;;;;;;;4.18;3.65;;;;;;;;;;5072288;28;20781;-74
2021/01/28 11:52:58;;;;;;;5.07;4.67;;;;;;;;;;5072097;28;20230;-73
2021/01/28 11:55:26;;;;;;;5.03;4.40;;;;;;;;;;5072363;28;20879;-74
2021/01/28 11:57:52;;;;;;;9.80;5.50;;;;;;;;;;5072485;28;20915;-74
2021/01/28 12:00:19;;;;;;;5.88;5.35;;;;;;;;;;5072519;28;20177;-74
2021/01/28 12:02:45;;;;;;;5.93;5.32;;;;;;;;;;5072330;28;20201;-74
2021/01/28 12:05:12;;;;;;;4.30;3.90;;;;;;;;;;5072043;28;20172;-74
2021/01/28 12:07:38;;;;;;;6.20;4.38;;;;;;;;;;5072264;28;20423;-74
2021/01/28 12:10:05;;;;;;;5.00;4.40;;;;;;;;;;5072161;28;20544;-74
2021/01/28 12:12:31;;;;;;;5.00;4.50;;;;;;;;;;5071927;28;20241;-73
2021/01/28 12:14:57;;;;;;;4.07;3.70;;;;;;;;;;5067537;28;20264;-73
2021/01/28 12:17:23;;;;;;;3.90;3.60;;;;;;;;;;5072535;28;20414;-74
2021/01/28 12:19:49;;;;;;;4.47;4.07;;;;;;;;;;5072673;28;20406;-75
2021/01/28 12:22:15;;;;;;;3.83;3.40;;;;;;;;;;5072403;28;20310;-73
2021/01/28 12:24:41;;;;;;;3.78;3.40;;;;;;;;;;5072458;28;20224;-73
2021/01/28 12:27:07;;;;;;;4.15;3.75;;;;;;;;;;5071633;28;20219;-74
2021/01/28 12:29:33;;;;;;;4.22;3.83;;;;;;;;;;5071002;28;20180;-74
2021/01/28 12:31:59;;;;;;;3.78;3.58;;;;;;;;;;5071982;28;20173;-74
2021/01/28 12:34:26;;;;;;;4.50;4.10;;;;;;;;;;5071235;28;20683;-74
2021/01/28 12:36:52;;;;;;;4.40;4.05;;;;;;;;;;5071575;28;20427;-74
2021/01/28 12:39:18;;;;;;;4.05;3.75;;;;;;;;;;5071365;28;20615;-74
2021/01/28 12:41:44;;;;;;;4.55;3.97;;;;;;;;;;5070203;28;20637;-74
2021/01/28 12:44:10;;;;;;;5.30;4.63;;;;;;;;;;5070781;28;20207;-74
2021/01/28 12:46:36;;;;;;;4.70;4.30;;;;;;;;;;5071561;28;20407;-74
2021/01/28 12:49:02;;;;;;;5.57;4.55;;;;;;;;;;5071544;28;20828;-74
2021/01/28 12:51:28;;;;;;;6.40;5.80;;;;;;;;;;5070564;28;20532;-74
2021/01/28 12:53:54;;;;;;;5.10;4.70;;;;;;;;;;5071063;28;20212;-74
2021/01/28 12:56:20;;;;;;;6.50;5.90;;;;;;;;;;5071270;28;20395;-74
2021/01/28 12:58:46;;;;;;;6.60;5.90;;;;;;;;;;5070113;28;20185;-73
2021/01/28 13:01:12;;;;;;;7.00;6.33;;;;;;;;;;5069569;28;20464;-74
2021/01/28 13:03:38;;;;;;;7.27;6.57;;;;;;;;;;5070836;28;20993;-74
2021/01/28 13:06:04;;;;;;;6.67;5.80;;;;;;;;;;5066644;28;20447;-74
2021/01/28 13:08:30;;;;;;;5.63;5.10;;;;;;;;;;5071206;28;20479;-72
2021/01/28 13:10:56;;;;;;;5.20;4.70;;;;;;;;;;5069506;28;20436;-74
2021/01/28 13:13:22;;;;;;;4.53;4.13;;;;;;;;;;5070636;28;20571;-74
2021/01/28 13:15:48;;;;;;;5.20;4.80;;;;;;;;;;5070854;28;20418;-74
2021/01/28 13:18:14;;;;;;;4.80;4.40;;;;;;;;;;5070825;28;20169;-74
2021/01/28 13:20:40;;;;;;;6.95;4.40;;;;;;;;;;5069057;28;20183;-74
2021/01/28 13:23:06;;;;;;;4.85;4.45;;;;;;;;;;5070398;28;20730;-74
2021/01/28 13:25:32;;;;;;;5.40;4.50;;;;;;;;;;5070782;28;20184;-73
2021/01/28 13:27:58;;;;;;;5.57;4.90;;;;;;;;;;5064084;28;20442;-74
2021/01/28 13:30:25;;;;;;;4.40;4.00;;;;;;;;;;5068808;28;20440;-75
2021/01/28 13:32:52;;;;;;;7.38;6.10;;;;;;;;;;5070663;28;20993;-74
2021/01/28 13:35:19;;;;;;;6.15;5.47;;;;;;;;;;5070592;28;20212;-73
2021/01/28 13:37:45;;;;;;;5.97;4.70;;;;;;;;;;5070415;28;20207;-74
2021/01/28 13:40:12;;;;;;;9.27;7.05;;;;;;;;;;5069359;28;20184;-75
2021/01/28 13:42:38;;;;;;;5.70;5.18;;;;;;;;;;5069043;28;20187;-73
2021/01/28 13:45:05;;;;;;;8.27;6.67;;;;;;;;;;5070654;28;20173;-74
2021/01/28 13:47:31;;;;;;;7.65;6.05;;;;;;;;;;5069243;28;20850;-74
2021/01/28 13:49:57;;;;;;;5.50;5.00;;;;;;;;;;5059210;28;20230;-73
2021/01/28 13:52:23;;;;;;;5.53;4.80;;;;;;;;;;5070392;28;20828;-73
2021/01/28 13:54:49;;;;;;;7.70;6.77;;;;;;;;;;5070363;28;20274;-75
2021/01/28 13:57:15;;;;;;;7.27;6.57;;;;;;;;;;5070367;28;20419;-74
2021/01/28 13:59:41;;;;;;;7.37;5.80;;;;;;;;;;5062284;28;20502;-73
2021/01/28 14:02:07;;;;;;;6.70;6.03;;;;;;;;;;5050349;28;20896;-74
2021/01/28 14:04:34;;;;;;;6.95;6.25;;;;;;;;;;5049448;28;20459;-74
2021/01/28 14:07:00;;;;;;;7.40;5.88;;;;;;;;;;5069823;28;20206;-74
2021/01/28 14:09:27;;;;;;;6.38;5.78;;;;;;;;;;5071504;28;20731;-73
2021/01/28 14:11:53;;;;;;;5.78;4.90;;;;;;;;;;5074897;28;20644;-73
2021/01/28 14:14:19;;;;;;;5.72;5.10;;;;;;;;;;5072299;28;20299;-74
2021/01/28 14:16:45;;;;;;;4.78;4.38;;;;;;;;;;5074400;28;20223;-73
2021/01/28 14:19:11;;;;;;;5.38;4.05;;;;;;;;;;5070809;28;20664;-74
2021/01/28 14:21:37;;;;;;;5.13;4.63;;;;;;;;;;5072427;28;20185;-74
2021/01/28 14:24:03;;;;;;;5.03;4.53;;;;;;;;;;5073390;28;21048;-74
2021/01/28 14:26:29;;;;;;;5.70;5.20;;;;;;;;;;5074684;28;20411;-74
2021/01/28 14:28:55;;;;;;;6.38;5.70;;;;;;;;;;5069539;28;20439;-75
2021/01/28 14:31:21;;;;;;;6.37;5.77;;;;;;;;;;5074252;28;20268;-74
2021/01/28 14:33:47;;;;;;;7.53;6.18;;;;;;;;;;5072971;28;20934;-74
2021/01/28 14:36:12;;;;;;;5.57;5.05;;;;;;;;;;5073417;28;20176;-75
2021/01/28 14:38:38;;;;;;;6.77;6.17;;;;;;;;;;5058890;28;20209;-74